Hauptseite
METAR-TAF:

METAR-TAF

Flughäfen :

Militärflugplatz Luxeuil-Saint Sauveur

Luxeuil-les-Bains, Frankreich

Breite: 47-47N, Länge: 006-21E, Höhe: 278 m

Beobachtung

Neuester Wetterbericht von vor 30 Minuten, um 14:30 UTC
Wind 8 kt aus Nord/Nordwest, variierte zwischen West und Nord/Nordost
Temperatur 12°C
Luftfeuchtigkeit 38%
Luftdruck 1028 hPa
Sichtweite 10 km oder mehr
keine Wolken unter 1500 m und keine Kumulonimbus oder Gewitterwolken

METAR: LFSX 261430Z AUTO 33008KT 280V020 CAVOK 12/M02 Q1028

Zeit: 16:00 (15:00 UTC)

Prognose

Neuester Wetterbericht von vor 1 Stunde und 0 Minuten, um 14:00 UTC
Gültige Prognose vom 26 um 15 UTC bis 27 um 15 UTC
Wind 6 kt aus Nord/Nordost
Sichtweite 10 km oder mehr
keine Wolken unter 1500 m und keine Kumulonimbus oder Gewitterwolken

TAF: LFSX 261400Z 2615/2715 02006KT CAVOK

Wetterbeobachtungen und Prognosen von mehr als 4000 Flughäfen (METAR und TAF Bericht).

Die verfügbaren Stationen werden durch gelbe und rote Markierungen auf der Karte dargestellt.

Führen Sie die Maus auf sie, um den Namen der Station zu sehen.

Darauf klicken, um die Beobachtung von Wetterbeobachtungen und Prognosen zu sehen.

Um die Karte zu ändern : klicken Sie auf den grünen Tasten mit einem schwarzen Kreuz Zum Vergrößern, auf den grünen Button mit einem Gedankenstrich zu verkleinern, oder auf die grünen Pfeile für benachbarte Karten.


METAR-TAF: